createdAt,value
2022-11-29T00:02:04.171Z,3.40
2022-11-29T00:04:34.168Z,3.40
2022-11-29T00:07:04.007Z,3.40
2022-11-29T00:09:33.838Z,3.40
2022-11-29T00:12:12.963Z,3.40
2022-11-29T00:14:45.867Z,3.40
2022-11-29T00:17:15.949Z,3.30
2022-11-29T00:19:45.876Z,3.40
2022-11-29T00:22:15.709Z,3.40
2022-11-29T00:24:45.763Z,3.30
2022-11-29T00:27:15.787Z,3.30
2022-11-29T00:29:48.221Z,3.30
2022-11-29T00:32:18.057Z,3.40
2022-11-29T00:34:47.929Z,3.30
2022-11-29T00:37:17.831Z,3.30
2022-11-29T00:39:47.667Z,3.30
2022-11-29T00:42:17.593Z,3.30
2022-11-29T00:44:50.022Z,3.30
2022-11-29T00:47:20.024Z,3.30
2022-11-29T00:49:49.859Z,3.30
2022-11-29T00:52:19.787Z,3.30
2022-11-29T00:54:49.661Z,3.30
2022-11-29T00:57:19.522Z,3.30
2022-11-29T00:59:51.981Z,3.30
2022-11-29T01:02:21.879Z,3.30
2022-11-29T01:04:51.715Z,3.40
2022-11-29T01:07:21.611Z,3.30
2022-11-29T01:09:51.487Z,3.30
2022-11-29T01:12:21.338Z,3.40
2022-11-29T01:14:53.787Z,3.40
2022-11-29T01:17:23.643Z,3.40
2022-11-29T01:19:53.541Z,3.30
2022-11-29T01:22:23.451Z,3.40
2022-11-29T01:24:53.363Z,3.30
2022-11-29T01:27:23.217Z,3.30
2022-11-29T01:29:55.672Z,3.40
2022-11-29T01:32:25.633Z,3.40
2022-11-29T01:34:55.499Z,3.40
2022-11-29T01:37:25.342Z,3.40
2022-11-29T01:39:55.256Z,3.40
2022-11-29T01:42:25.207Z,3.40
2022-11-29T01:45:24.631Z,3.30
2022-11-29T01:47:58.176Z,3.30
2022-11-29T01:50:28.407Z,3.40
2022-11-29T01:52:58.389Z,3.40
2022-11-29T01:55:28.529Z,3.30
2022-11-29T01:57:58.719Z,3.40
2022-11-29T02:00:31.207Z,3.30
2022-11-29T02:03:06.839Z,3.40
2022-11-29T02:05:36.875Z,3.40
2022-11-29T02:08:07.178Z,3.30
2022-11-29T02:10:54.375Z,3.40
2022-11-29T02:13:35.909Z,3.30
2022-11-29T02:16:18.936Z,3.30
2022-11-29T02:18:57.366Z,3.30
2022-11-29T02:21:41.227Z,3.30
2022-11-29T02:24:48.903Z,3.30
2022-11-29T02:28:18.742Z,3.30
2022-11-29T02:31:18.478Z,3.30
2022-11-29T02:34:23.330Z,3.30
2022-11-29T02:37:31.260Z,3.30
2022-11-29T02:40:41.360Z,3.30
2022-11-29T02:43:32.750Z,3.30
2022-11-29T02:46:19.930Z,3.30
2022-11-29T02:49:04.916Z,3.30
2022-11-29T02:51:44.238Z,3.30
2022-11-29T02:54:22.793Z,3.30
2022-11-29T02:57:00.845Z,3.30
2022-11-29T02:59:45.940Z,3.30
2022-11-29T03:02:23.110Z,3.30
2022-11-29T03:05:06.362Z,3.30
2022-11-29T03:07:47.852Z,3.30
2022-11-29T03:10:27.722Z,3.30
2022-11-29T03:12:58.586Z,3.30
2022-11-29T03:15:33.439Z,3.30
2022-11-29T03:18:22.840Z,3.30
2022-11-29T03:21:11.209Z,3.30
2022-11-29T03:23:47.012Z,3.30
2022-11-29T03:26:22.171Z,3.30
2022-11-29T03:29:01.162Z,3.30
2022-11-29T03:31:37.303Z,3.30
2022-11-29T03:34:16.279Z,3.30
2022-11-29T03:36:57.457Z,3.30
2022-11-29T03:39:37.886Z,3.30
2022-11-29T03:42:15.461Z,3.30
2022-11-29T03:45:00.174Z,3.30
2022-11-29T03:47:38.266Z,3.30
2022-11-29T03:50:16.081Z,3.30
2022-11-29T03:52:55.343Z,3.30
2022-11-29T03:55:36.285Z,3.30
2022-11-29T03:58:25.254Z,3.30
2022-11-29T04:01:33.342Z,3.30
2022-11-29T04:04:43.384Z,3.30
2022-11-29T04:07:37.509Z,3.30
2022-11-29T04:10:38.426Z,3.30
2022-11-29T04:13:59.683Z,3.30
2022-11-29T04:17:03.229Z,3.30
2022-11-29T04:20:28.916Z,3.30
2022-11-29T04:23:40.318Z,3.30
2022-11-29T04:26:54.158Z,3.30
2022-11-29T04:29:55.462Z,3.30
2022-11-29T04:33:07.675Z,3.30
2022-11-29T04:36:09.469Z,3.30
2022-11-29T04:39:12.181Z,3.30
2022-11-29T04:42:23.974Z,3.30
2022-11-29T04:45:50.626Z,3.30
2022-11-29T04:48:29.092Z,3.30
2022-11-29T04:51:11.011Z,3.30
2022-11-29T04:53:55.319Z,3.30
2022-11-29T04:56:35.681Z,3.20
2022-11-29T04:59:16.291Z,3.20
2022-11-29T05:02:05.709Z,3.20
2022-11-29T05:04:48.357Z,3.20
2022-11-29T05:07:30.523Z,3.20
2022-11-29T05:10:14.065Z,3.20
2022-11-29T05:12:52.798Z,3.20
2022-11-29T05:15:50.947Z,3.20
2022-11-29T05:18:30.205Z,3.20
2022-11-29T05:21:09.679Z,3.20
2022-11-29T05:23:55.347Z,3.20
2022-11-29T05:26:33.566Z,3.20
2022-11-29T05:29:08.816Z,3.20
2022-11-29T05:31:59.300Z,3.10
2022-11-29T05:34:47.448Z,3.20
2022-11-29T05:37:32.347Z,3.20
2022-11-29T05:40:31.102Z,3.20
2022-11-29T05:43:19.525Z,3.20
2022-11-29T05:45:57.816Z,3.10
2022-11-29T05:48:45.056Z,3.10
2022-11-29T05:51:24.246Z,3.20
2022-11-29T05:54:03.917Z,3.10
2022-11-29T05:56:45.571Z,3.20
2022-11-29T05:59:20.996Z,3.10
2022-11-29T06:02:01.598Z,3.10
2022-11-29T06:04:58.667Z,3.10
2022-11-29T06:07:40.589Z,3.10
2022-11-29T06:10:17.788Z,3.10
2022-11-29T06:13:00.154Z,3.10
2022-11-29T06:16:05.118Z,3.10
2022-11-29T06:19:11.241Z,3.10
2022-11-29T06:21:49.129Z,3.10
2022-11-29T06:24:34.473Z,3.10
2022-11-29T06:27:24.732Z,3.00
2022-11-29T06:30:02.203Z,3.10
2022-11-29T06:32:44.054Z,3.10
2022-11-29T06:35:35.658Z,3.10
2022-11-29T06:38:18.959Z,3.10
2022-11-29T06:40:49.823Z,3.10
2022-11-29T06:43:21.121Z,3.10
2022-11-29T06:45:56.459Z,3.10
2022-11-29T06:48:29.622Z,3.10
2022-11-29T06:51:06.665Z,3.10
2022-11-29T06:53:51.899Z,3.10
2022-11-29T06:56:30.660Z,3.10
2022-11-29T06:59:08.148Z,3.10
2022-11-29T07:01:47.562Z,3.10
2022-11-29T07:04:45.437Z,3.10
2022-11-29T07:07:23.046Z,3.10
2022-11-29T07:09:59.902Z,3.10
2022-11-29T07:12:31.053Z,3.10
2022-11-29T07:15:01.707Z,3.20
2022-11-29T07:17:40.461Z,3.20
2022-11-29T07:20:18.703Z,3.10
2022-11-29T07:23:04.824Z,3.20
2022-11-29T07:25:46.464Z,3.20
2022-11-29T07:28:35.019Z,3.20
2022-11-29T07:31:13.274Z,3.20
2022-11-29T07:33:57.352Z,3.20
2022-11-29T07:36:37.526Z,3.20
2022-11-29T07:39:25.910Z,3.30
2022-11-29T07:42:06.177Z,3.30
2022-11-29T07:44:43.022Z,3.30
2022-11-29T07:47:13.042Z,3.30
2022-11-29T07:49:42.888Z,3.30
2022-11-29T07:52:14.491Z,3.40
2022-11-29T07:54:45.090Z,3.40
2022-11-29T07:57:17.802Z,3.40
2022-11-29T07:59:47.855Z,3.40
2022-11-29T08:02:17.808Z,3.40
2022-11-29T08:04:47.878Z,3.40
2022-11-29T08:07:17.912Z,3.40
2022-11-29T08:09:48.009Z,3.50
2022-11-29T08:12:20.553Z,3.50
2022-11-29T08:14:50.617Z,3.50
2022-11-29T08:17:20.465Z,3.50
2022-11-29T08:19:50.383Z,3.60
2022-11-29T08:22:20.350Z,3.60
2022-11-29T08:24:50.198Z,3.60
2022-11-29T08:27:22.679Z,3.60
2022-11-29T08:29:52.555Z,3.70
2022-11-29T08:32:22.485Z,3.60
2022-11-29T08:34:52.316Z,3.70
2022-11-29T08:37:22.198Z,3.80
2022-11-29T08:39:52.068Z,3.80
2022-11-29T08:42:24.493Z,3.80
2022-11-29T08:44:54.355Z,3.80
2022-11-29T08:47:42.454Z,3.80
2022-11-29T08:50:16.888Z,3.80
2022-11-29T08:53:01.442Z,3.80
2022-11-29T08:55:36.131Z,3.90
2022-11-29T08:58:11.106Z,3.90
2022-11-29T09:00:42.401Z,3.90
2022-11-29T09:03:24.920Z,3.90
2022-11-29T09:05:55.629Z,4.00
2022-11-29T09:08:25.558Z,4.00
2022-11-29T09:10:55.451Z,3.90
2022-11-29T09:13:27.914Z,4.00
2022-11-29T09:15:57.789Z,4.00
2022-11-29T09:18:28.779Z,4.10
2022-11-29T09:20:59.457Z,4.10
2022-11-29T09:23:29.440Z,4.10
2022-11-29T09:25:59.341Z,4.10
2022-11-29T09:28:33.304Z,4.10
2022-11-29T09:31:08.793Z,4.10
2022-11-29T09:33:39.852Z,4.20
2022-11-29T09:36:12.728Z,4.20
2022-11-29T09:38:42.992Z,4.20
2022-11-29T09:41:38.098Z,4.30
2022-11-29T09:44:21.518Z,4.20
2022-11-29T09:47:02.957Z,4.30
2022-11-29T09:49:52.417Z,4.30
2022-11-29T09:52:39.561Z,4.30
2022-11-29T09:55:29.464Z,4.30
2022-11-29T09:58:01.769Z,4.40
2022-11-29T10:00:40.299Z,4.30
2022-11-29T10:03:18.059Z,4.40
2022-11-29T10:05:50.927Z,4.30
2022-11-29T10:08:28.451Z,4.40
2022-11-29T10:11:10.202Z,4.30
2022-11-29T10:13:44.226Z,4.40
2022-11-29T10:16:25.321Z,4.40
2022-11-29T10:19:02.780Z,4.40
2022-11-29T10:21:38.167Z,4.40
2022-11-29T10:24:14.853Z,4.40
2022-11-29T10:26:44.982Z,4.40
2022-11-29T10:29:17.335Z,4.40
2022-11-29T10:31:52.885Z,4.50
2022-11-29T10:34:25.765Z,4.50
2022-11-29T10:36:59.534Z,4.50
2022-11-29T10:39:37.305Z,4.50
2022-11-29T10:42:29.222Z,4.50
2022-11-29T10:44:59.927Z,4.50
2022-11-29T10:47:32.807Z,4.50
2022-11-29T10:50:03.624Z,4.50
2022-11-29T10:52:33.837Z,4.50
2022-11-29T10:55:04.919Z,4.50
2022-11-29T10:57:35.388Z,4.50
2022-11-29T11:00:10.775Z,4.50
2022-11-29T11:02:43.662Z,4.50
2022-11-29T11:05:19.434Z,4.60
2022-11-29T11:07:58.813Z,4.60
2022-11-29T11:10:31.662Z,4.60
2022-11-29T11:13:08.115Z,4.60
2022-11-29T11:15:38.854Z,4.60
2022-11-29T11:18:25.516Z,4.60
2022-11-29T11:20:58.751Z,4.60
2022-11-29T11:23:32.537Z,4.60
2022-11-29T11:26:06.366Z,4.60
2022-11-29T11:28:43.138Z,4.60
2022-11-29T11:31:14.513Z,4.60
2022-11-29T11:33:48.751Z,4.60
2022-11-29T11:36:25.929Z,4.50
2022-11-29T11:38:58.609Z,4.60
2022-11-29T11:41:44.938Z,4.50
2022-11-29T11:44:46.784Z,4.60
2022-11-29T11:47:21.445Z,4.60
2022-11-29T11:50:07.562Z,4.60
2022-11-29T11:52:48.856Z,4.60
2022-11-29T11:55:33.414Z,4.60
2022-11-29T11:58:19.662Z,4.60
2022-11-29T12:01:07.912Z,4.60
2022-11-29T12:03:51.214Z,4.60
2022-11-29T12:06:34.969Z,4.70
2022-11-29T12:09:16.572Z,4.70
2022-11-29T12:11:56.378Z,4.70
2022-11-29T12:14:35.765Z,4.70
2022-11-29T12:17:19.623Z,4.70
2022-11-29T12:20:02.240Z,4.70
2022-11-29T12:22:46.699Z,4.70
2022-11-29T12:25:24.983Z,4.70
2022-11-29T12:27:55.175Z,4.70
2022-11-29T12:30:25.218Z,4.70
2022-11-29T12:33:24.446Z,4.70
2022-11-29T12:36:30.686Z,4.70
2022-11-29T12:39:18.703Z,4.70
2022-11-29T12:41:55.748Z,4.70
2022-11-29T12:44:41.098Z,4.70
2022-11-29T12:47:38.590Z,4.70
2022-11-29T12:50:35.053Z,4.70
2022-11-29T12:53:27.503Z,4.70
2022-11-29T12:56:13.747Z,4.70
2022-11-29T12:58:59.433Z,4.70
2022-11-29T13:01:44.864Z,4.70
2022-11-29T13:04:23.559Z,4.80
2022-11-29T13:07:04.210Z,4.70
2022-11-29T13:10:00.972Z,4.80
2022-11-29T13:12:40.293Z,4.80
2022-11-29T13:15:17.846Z,4.80
2022-11-29T13:17:54.738Z,4.80
2022-11-29T13:20:38.481Z,4.80
2022-11-29T13:23:18.733Z,4.80
2022-11-29T13:25:52.230Z,4.70
2022-11-29T13:28:30.528Z,4.80
2022-11-29T13:31:05.852Z,4.70
2022-11-29T13:33:45.181Z,4.70
2022-11-29T13:36:24.286Z,4.70
2022-11-29T13:39:05.623Z,4.70
2022-11-29T13:41:42.817Z,4.70
2022-11-29T13:44:23.749Z,4.70
2022-11-29T13:47:05.970Z,4.70
2022-11-29T13:50:04.874Z,4.70
2022-11-29T13:52:42.897Z,4.70
2022-11-29T13:55:29.344Z,4.70
2022-11-29T13:58:17.496Z,4.70
2022-11-29T14:00:55.005Z,4.70
2022-11-29T14:03:34.168Z,4.70
2022-11-29T14:06:14.907Z,4.70
2022-11-29T14:09:20.261Z,4.70
2022-11-29T14:11:55.537Z,4.70
2022-11-29T14:14:31.367Z,4.70
2022-11-29T14:17:07.728Z,4.70
2022-11-29T14:19:39.592Z,4.70
2022-11-29T14:22:24.609Z,4.70
2022-11-29T14:25:21.660Z,4.70
2022-11-29T14:28:03.679Z,4.70
2022-11-29T14:30:53.874Z,4.70
2022-11-29T14:34:03.997Z,4.60
2022-11-29T14:36:53.398Z,4.60
2022-11-29T14:39:46.899Z,4.70
2022-11-29T14:42:20.290Z,4.70
2022-11-29T14:44:53.775Z,4.70
2022-11-29T14:47:32.652Z,4.70
2022-11-29T14:50:10.521Z,4.70
2022-11-29T14:52:43.121Z,4.70
2022-11-29T14:55:35.799Z,4.70
2022-11-29T14:58:23.043Z,4.60
2022-11-29T15:01:10.341Z,4.60
2022-11-29T15:03:49.888Z,4.70
2022-11-29T15:06:38.217Z,4.70
2022-11-29T15:09:22.399Z,4.70
2022-11-29T15:11:56.872Z,4.60
2022-11-29T15:14:39.206Z,4.70
2022-11-29T15:17:22.884Z,4.70
2022-11-29T15:20:09.445Z,4.70
2022-11-29T15:22:52.293Z,4.70
2022-11-29T15:25:26.011Z,4.60
2022-11-29T15:27:57.361Z,4.60
2022-11-29T15:30:34.512Z,4.60
2022-11-29T15:33:08.338Z,4.60
2022-11-29T15:35:39.694Z,4.60
2022-11-29T15:38:20.342Z,4.60
2022-11-29T15:40:55.290Z,4.60
2022-11-29T15:43:30.426Z,4.60
2022-11-29T15:46:02.048Z,4.50
2022-11-29T15:48:34.251Z,4.50
2022-11-29T15:51:13.010Z,4.60
2022-11-29T15:53:53.975Z,4.50
2022-11-29T15:56:40.215Z,4.50
2022-11-29T15:59:30.879Z,4.50
2022-11-29T16:02:04.752Z,4.50
2022-11-29T16:04:35.079Z,4.50
2022-11-29T16:07:07.570Z,4.50
2022-11-29T16:09:44.688Z,4.40
2022-11-29T16:12:19.006Z,4.40
2022-11-29T16:14:54.122Z,4.50
2022-11-29T16:17:24.839Z,4.40
2022-11-29T16:19:55.000Z,4.40
2022-11-29T16:22:26.793Z,4.50
2022-11-29T16:25:07.452Z,4.40
2022-11-29T16:27:39.246Z,4.40
2022-11-29T16:30:19.627Z,4.40
2022-11-29T16:32:55.694Z,4.40
2022-11-29T16:35:29.013Z,4.40
2022-11-29T16:38:00.232Z,4.40
2022-11-29T16:40:35.489Z,4.40
2022-11-29T16:43:25.236Z,4.40
2022-11-29T16:46:36.488Z,4.40
2022-11-29T16:49:37.802Z,4.40
2022-11-29T16:52:27.355Z,4.40
2022-11-29T16:54:57.201Z,4.40
2022-11-29T16:57:31.261Z,4.40
2022-11-29T17:00:01.263Z,4.40
2022-11-29T17:02:32.598Z,4.50
2022-11-29T17:05:02.523Z,4.50
2022-11-29T17:07:35.641Z,4.50
2022-11-29T17:10:08.597Z,4.50
2022-11-29T17:12:46.337Z,4.50
2022-11-29T17:15:17.989Z,4.50
2022-11-29T17:17:48.010Z,4.50
2022-11-29T17:20:18.279Z,4.50
2022-11-29T17:22:48.119Z,4.40
2022-11-29T17:25:18.216Z,4.50
2022-11-29T17:27:50.655Z,4.50
2022-11-29T17:30:21.099Z,4.50
2022-11-29T17:32:50.935Z,4.50
2022-11-29T17:35:20.827Z,4.50
2022-11-29T17:37:50.699Z,4.50
2022-11-29T17:40:21.317Z,4.50
2022-11-29T17:42:54.536Z,4.50
2022-11-29T17:45:24.643Z,4.50
2022-11-29T17:47:54.470Z,4.50
2022-11-29T17:50:24.462Z,4.50
2022-11-29T17:52:54.365Z,4.50
2022-11-29T17:55:26.979Z,4.50
2022-11-29T17:58:01.966Z,4.50
2022-11-29T18:00:31.801Z,4.50
2022-11-29T18:03:01.654Z,4.50
2022-11-29T18:05:34.736Z,4.50
2022-11-29T18:08:05.887Z,4.50
2022-11-29T18:10:36.340Z,4.50
2022-11-29T18:13:08.767Z,4.50
2022-11-29T18:15:38.586Z,4.50
2022-11-29T18:18:08.728Z,4.50
2022-11-29T18:20:38.579Z,4.50
2022-11-29T18:23:08.524Z,4.50
2022-11-29T18:25:39.854Z,4.50
2022-11-29T18:28:13.966Z,4.50
2022-11-29T18:30:43.812Z,4.50
2022-11-29T18:33:13.667Z,4.50
2022-11-29T18:35:43.517Z,4.40
2022-11-29T18:38:15.563Z,4.50
2022-11-29T18:40:47.739Z,4.40
2022-11-29T18:43:21.454Z,4.50
2022-11-29T18:45:51.368Z,4.50
2022-11-29T18:48:21.242Z,4.40
2022-11-29T18:50:51.122Z,4.40
2022-11-29T18:53:20.948Z,4.40
2022-11-29T18:55:50.789Z,4.40
2022-11-29T18:58:23.188Z,4.40
2022-11-29T19:00:53.253Z,4.40
2022-11-29T19:03:23.196Z,4.40
2022-11-29T19:05:54.624Z,4.40
2022-11-29T19:08:25.560Z,4.40
2022-11-29T19:10:55.411Z,4.40
2022-11-29T19:13:27.825Z,4.40
2022-11-29T19:15:58.173Z,4.40
2022-11-29T19:18:28.192Z,4.40
2022-11-29T19:21:06.646Z,4.40
2022-11-29T19:23:36.922Z,4.40
2022-11-29T19:26:07.555Z,4.40
2022-11-29T19:28:42.971Z,4.40
2022-11-29T19:31:15.116Z,4.40
2022-11-29T19:33:48.013Z,4.40
2022-11-29T19:36:20.491Z,4.40
2022-11-29T19:38:53.661Z,4.30
2022-11-29T19:41:26.887Z,4.30
2022-11-29T19:44:01.041Z,4.40
2022-11-29T19:46:34.718Z,4.30
2022-11-29T19:49:06.426Z,4.30
2022-11-29T19:51:37.076Z,4.30
2022-11-29T19:54:09.936Z,4.30
2022-11-29T19:56:39.845Z,4.30
2022-11-29T19:59:12.465Z,4.30
2022-11-29T20:01:43.257Z,4.30
2022-11-29T20:04:16.868Z,4.30
2022-11-29T20:06:47.576Z,4.30
2022-11-29T20:09:18.486Z,4.30
2022-11-29T20:11:48.363Z,4.30
2022-11-29T20:14:21.302Z,4.30
2022-11-29T20:16:51.307Z,4.30
2022-11-29T20:19:21.151Z,4.20
2022-11-29T20:21:51.850Z,4.30
2022-11-29T20:24:22.095Z,4.30
2022-11-29T20:26:52.677Z,4.30
2022-11-29T20:29:30.422Z,4.20
2022-11-29T20:32:00.262Z,4.30
2022-11-29T20:34:30.565Z,4.20
2022-11-29T20:37:30.274Z,4.20
2022-11-29T20:40:05.030Z,4.20
2022-11-29T20:42:58.476Z,4.20
2022-11-29T20:45:32.050Z,4.20
2022-11-29T20:48:11.284Z,4.20
2022-11-29T20:50:42.131Z,4.10
2022-11-29T20:53:30.266Z,4.10
2022-11-29T20:56:00.413Z,4.20
2022-11-29T20:58:30.452Z,4.10
2022-11-29T21:01:03.445Z,4.10
2022-11-29T21:03:33.847Z,4.10
2022-11-29T21:06:06.118Z,4.10
2022-11-29T21:08:36.951Z,4.20
2022-11-29T21:11:10.270Z,4.10
2022-11-29T21:13:41.331Z,4.10
2022-11-29T21:16:16.163Z,4.10
2022-11-29T21:18:47.258Z,4.10
2022-11-29T21:21:26.829Z,4.10
2022-11-29T21:24:06.863Z,4.10
2022-11-29T21:26:41.935Z,4.10
2022-11-29T21:29:21.012Z,4.10
2022-11-29T21:31:57.007Z,4.10
2022-11-29T21:34:26.961Z,4.10
2022-11-29T21:37:00.075Z,4.10
2022-11-29T21:39:35.143Z,4.10
2022-11-29T21:42:05.537Z,4.10
2022-11-29T21:44:35.592Z,4.10
2022-11-29T21:47:08.450Z,4.00
2022-11-29T21:49:38.443Z,4.00
2022-11-29T21:52:08.809Z,4.00
2022-11-29T21:54:38.711Z,4.10
2022-11-29T21:57:08.575Z,4.00
2022-11-29T21:59:38.440Z,4.00
2022-11-29T22:02:11.087Z,4.00
2022-11-29T22:04:41.105Z,4.00
2022-11-29T22:07:12.138Z,4.00
2022-11-29T22:09:42.239Z,4.00
2022-11-29T22:12:32.572Z,4.00
2022-11-29T22:15:02.124Z,4.00
2022-11-29T22:17:34.767Z,4.10
2022-11-29T22:20:04.594Z,4.00
2022-11-29T22:22:34.433Z,4.00
2022-11-29T22:25:04.267Z,4.00
2022-11-29T22:27:34.151Z,4.00
2022-11-29T22:30:03.984Z,4.00
2022-11-29T22:32:36.625Z,4.00
2022-11-29T22:35:06.929Z,4.00
2022-11-29T22:37:36.780Z,4.00
2022-11-29T22:40:08.500Z,4.00
2022-11-29T22:42:38.576Z,4.00
2022-11-29T22:45:09.848Z,4.00
2022-11-29T22:47:42.295Z,4.00
2022-11-29T22:50:14.027Z,4.00
2022-11-29T22:52:43.886Z,4.00
2022-11-29T22:55:13.750Z,4.00
2022-11-29T22:57:43.573Z,4.00
2022-11-29T23:00:16.035Z,4.00
2022-11-29T23:02:48.468Z,4.00
2022-11-29T23:05:18.506Z,3.90
2022-11-29T23:07:48.631Z,4.00
2022-11-29T23:10:18.826Z,3.90
2022-11-29T23:12:48.666Z,3.90
2022-11-29T23:15:18.705Z,3.90
2022-11-29T23:17:51.153Z,3.90
2022-11-29T23:20:21.274Z,3.90
2022-11-29T23:22:51.143Z,4.00
2022-11-29T23:25:21.110Z,3.90
2022-11-29T23:27:51.014Z,3.90
2022-11-29T23:30:21.070Z,3.90
2022-11-29T23:32:53.516Z,3.90
2022-11-29T23:35:23.364Z,3.90
2022-11-29T23:37:53.225Z,3.90
2022-11-29T23:40:23.051Z,3.90
2022-11-29T23:42:54.152Z,3.90
2022-11-29T23:45:24.590Z,3.90
2022-11-29T23:47:57.076Z,3.90
2022-11-29T23:50:27.302Z,3.90
2022-11-29T23:52:57.726Z,3.90
2022-11-29T23:55:28.154Z,3.90
2022-11-29T23:57:58.072Z,3.90
